sensor_id;sensor_type;location;lat;lon;timestamp;P1;durP1;ratioP1;P2;durP2;ratioP2
62582;SDS011;48641;51.676;5.808;2023-07-29T00:01:30;3.33;;;1.42;;
62582;SDS011;48641;51.676;5.808;2023-07-29T00:03:56;2.70;;;1.20;;
62582;SDS011;48641;51.676;5.808;2023-07-29T00:06:21;2.97;;;1.30;;
62582;SDS011;48641;51.676;5.808;2023-07-29T00:08:47;2.85;;;1.33;;
62582;SDS011;48641;51.676;5.808;2023-07-29T00:11:13;2.53;;;1.40;;
62582;SDS011;48641;51.676;5.808;2023-07-29T00:13:39;3.05;;;1.33;;
62582;SDS011;48641;51.676;5.808;2023-07-29T00:16:04;2.53;;;1.30;;
62582;SDS011;48641;51.676;5.808;2023-07-29T00:18:31;4.00;;;1.30;;
62582;SDS011;48641;51.676;5.808;2023-07-29T00:20:57;4.07;;;1.50;;
62582;SDS011;48641;51.676;5.808;2023-07-29T00:23:22;3.03;;;1.30;;
62582;SDS011;48641;51.676;5.808;2023-07-29T00:25:48;4.65;;;1.60;;
62582;SDS011;48641;51.676;5.808;2023-07-29T00:28:14;2.95;;;1.33;;
62582;SDS011;48641;51.676;5.808;2023-07-29T00:30:39;2.47;;;1.30;;
62582;SDS011;48641;51.676;5.808;2023-07-29T00:33:05;3.35;;;1.38;;
62582;SDS011;48641;51.676;5.808;2023-07-29T00:35:31;3.33;;;1.50;;
62582;SDS011;48641;51.676;5.808;2023-07-29T00:37:56;3.10;;;1.40;;
62582;SDS011;48641;51.676;5.808;2023-07-29T00:40:22;3.20;;;1.52;;
62582;SDS011;48641;51.676;5.808;2023-07-29T00:42:48;3.17;;;1.55;;
62582;SDS011;48641;51.676;5.808;2023-07-29T00:45:15;2.40;;;1.20;;
62582;SDS011;48641;51.676;5.808;2023-07-29T00:47:41;3.13;;;1.27;;
62582;SDS011;48641;51.676;5.808;2023-07-29T00:50:09;2.28;;;1.10;;
62582;SDS011;48641;51.676;5.808;2023-07-29T00:52:36;2.63;;;1.10;;
62582;SDS011;48641;51.676;5.808;2023-07-29T00:55:02;3.08;;;1.50;;
62582;SDS011;48641;51.676;5.808;2023-07-29T00:57:29;3.13;;;1.42;;
62582;SDS011;48641;51.676;5.808;2023-07-29T00:59:55;2.83;;;1.20;;
62582;SDS011;48641;51.676;5.808;2023-07-29T01:02:21;2.90;;;1.30;;
62582;SDS011;48641;51.676;5.808;2023-07-29T01:04:56;1.92;;;1.13;;
62582;SDS011;48641;51.676;5.808;2023-07-29T01:07:39;2.95;;;1.20;;
62582;SDS011;48641;51.676;5.808;2023-07-29T01:10:19;2.50;;;1.13;;
62582;SDS011;48641;51.676;5.808;2023-07-29T01:13:26;2.40;;;1.10;;
62582;SDS011;48641;51.676;5.808;2023-07-29T01:16:08;2.53;;;1.05;;
62582;SDS011;48641;51.676;5.808;2023-07-29T01:18:40;2.90;;;1.23;;
62582;SDS011;48641;51.676;5.808;2023-07-29T01:21:07;2.90;;;1.23;;
62582;SDS011;48641;51.676;5.808;2023-07-29T01:23:34;2.53;;;1.30;;
62582;SDS011;48641;51.676;5.808;2023-07-29T01:26:01;3.85;;;1.15;;
62582;SDS011;48641;51.676;5.808;2023-07-29T01:28:27;3.25;;;1.40;;
62582;SDS011;48641;51.676;5.808;2023-07-29T01:36:43;3.47;;;1.10;;
62582;SDS011;48641;51.676;5.808;2023-07-29T01:39:11;2.45;;;1.23;;
62582;SDS011;48641;51.676;5.808;2023-07-29T01:41:39;2.17;;;1.20;;
62582;SDS011;48641;51.676;5.808;2023-07-29T01:44:05;3.00;;;1.20;;
62582;SDS011;48641;51.676;5.808;2023-07-29T01:46:34;2.42;;;1.20;;
62582;SDS011;48641;51.676;5.808;2023-07-29T01:49:00;2.33;;;1.00;;
62582;SDS011;48641;51.676;5.808;2023-07-29T01:51:25;2.70;;;1.40;;
62582;SDS011;48641;51.676;5.808;2023-07-29T01:53:51;2.78;;;1.17;;
62582;SDS011;48641;51.676;5.808;2023-07-29T01:56:16;2.17;;;1.20;;
62582;SDS011;48641;51.676;5.808;2023-07-29T01:58:42;2.53;;;1.23;;
62582;SDS011;48641;51.676;5.808;2023-07-29T02:01:08;3.08;;;1.48;;
62582;SDS011;48641;51.676;5.808;2023-07-29T02:03:33;3.53;;;1.38;;
62582;SDS011;48641;51.676;5.808;2023-07-29T02:05:59;2.45;;;1.20;;
62582;SDS011;48641;51.676;5.808;2023-07-29T02:08:24;3.30;;;1.40;;
62582;SDS011;48641;51.676;5.808;2023-07-29T02:10:50;1.85;;;1.05;;
62582;SDS011;48641;51.676;5.808;2023-07-29T02:13:16;3.30;;;1.48;;
62582;SDS011;48641;51.676;5.808;2023-07-29T02:15:41;3.03;;;1.35;;
62582;SDS011;48641;51.676;5.808;2023-07-29T02:18:07;3.00;;;1.30;;
62582;SDS011;48641;51.676;5.808;2023-07-29T02:20:33;3.28;;;1.42;;
62582;SDS011;48641;51.676;5.808;2023-07-29T02:22:58;2.70;;;1.20;;
62582;SDS011;48641;51.676;5.808;2023-07-29T02:25:24;3.42;;;1.20;;
62582;SDS011;48641;51.676;5.808;2023-07-29T02:27:49;3.40;;;1.33;;
62582;SDS011;48641;51.676;5.808;2023-07-29T02:30:15;2.28;;;1.20;;
62582;SDS011;48641;51.676;5.808;2023-07-29T02:32:41;3.25;;;1.27;;
62582;SDS011;48641;51.676;5.808;2023-07-29T02:35:06;2.97;;;1.30;;
62582;SDS011;48641;51.676;5.808;2023-07-29T02:37:32;3.45;;;1.50;;
62582;SDS011;48641;51.676;5.808;2023-07-29T02:39:58;3.63;;;1.20;;
62582;SDS011;48641;51.676;5.808;2023-07-29T02:42:24;2.72;;;1.35;;
62582;SDS011;48641;51.676;5.808;2023-07-29T02:44:49;3.17;;;1.10;;
62582;SDS011;48641;51.676;5.808;2023-07-29T02:47:15;2.92;;;1.20;;
62582;SDS011;48641;51.676;5.808;2023-07-29T02:49:41;3.63;;;1.40;;
62582;SDS011;48641;51.676;5.808;2023-07-29T02:52:06;3.13;;;1.33;;
62582;SDS011;48641;51.676;5.808;2023-07-29T02:54:32;3.38;;;1.40;;
62582;SDS011;48641;51.676;5.808;2023-07-29T02:56:57;2.78;;;1.33;;
62582;SDS011;48641;51.676;5.808;2023-07-29T02:59:23;2.13;;;1.13;;
62582;SDS011;48641;51.676;5.808;2023-07-29T03:01:49;3.67;;;1.20;;
62582;SDS011;48641;51.676;5.808;2023-07-29T03:04:15;2.35;;;1.17;;
62582;SDS011;48641;51.676;5.808;2023-07-29T03:06:40;2.45;;;1.10;;
62582;SDS011;48641;51.676;5.808;2023-07-29T03:09:07;2.92;;;1.20;;
62582;SDS011;48641;51.676;5.808;2023-07-29T03:11:32;2.42;;;1.27;;
62582;SDS011;48641;51.676;5.808;2023-07-29T03:13:58;2.72;;;1.30;;
62582;SDS011;48641;51.676;5.808;2023-07-29T03:16:23;3.13;;;1.45;;
62582;SDS011;48641;51.676;5.808;2023-07-29T03:18:49;2.80;;;1.30;;
62582;SDS011;48641;51.676;5.808;2023-07-29T03:21:15;2.97;;;1.13;;
62582;SDS011;48641;51.676;5.808;2023-07-29T03:23:40;2.90;;;1.30;;
62582;SDS011;48641;51.676;5.808;2023-07-29T03:26:06;2.67;;;1.30;;
62582;SDS011;48641;51.676;5.808;2023-07-29T03:28:36;2.78;;;1.15;;
62582;SDS011;48641;51.676;5.808;2023-07-29T03:31:04;2.65;;;1.23;;
62582;SDS011;48641;51.676;5.808;2023-07-29T03:33:30;4.05;;;1.48;;
62582;SDS011;48641;51.676;5.808;2023-07-29T03:35:55;2.78;;;1.20;;
62582;SDS011;48641;51.676;5.808;2023-07-29T03:38:21;2.53;;;1.20;;
62582;SDS011;48641;51.676;5.808;2023-07-29T03:40:46;2.55;;;1.30;;
62582;SDS011;48641;51.676;5.808;2023-07-29T03:43:12;3.22;;;1.45;;
62582;SDS011;48641;51.676;5.808;2023-07-29T03:45:39;2.22;;;1.15;;
62582;SDS011;48641;51.676;5.808;2023-07-29T03:48:05;2.42;;;1.17;;
62582;SDS011;48641;51.676;5.808;2023-07-29T03:50:32;3.05;;;1.25;;
62582;SDS011;48641;51.676;5.808;2023-07-29T03:53:00;2.95;;;1.10;;
62582;SDS011;48641;51.676;5.808;2023-07-29T03:55:25;3.05;;;1.15;;
62582;SDS011;48641;51.676;5.808;2023-07-29T03:57:51;2.13;;;1.10;;
62582;SDS011;48641;51.676;5.808;2023-07-29T04:00:16;2.28;;;0.90;;
62582;SDS011;48641;51.676;5.808;2023-07-29T04:02:42;2.45;;;1.10;;
62582;SDS011;48641;51.676;5.808;2023-07-29T04:05:10;2.47;;;1.20;;
62582;SDS011;48641;51.676;5.808;2023-07-29T04:07:36;2.50;;;1.20;;
62582;SDS011;48641;51.676;5.808;2023-07-29T04:10:02;3.08;;;1.15;;
62582;SDS011;48641;51.676;5.808;2023-07-29T04:12:29;4.07;;;1.48;;
62582;SDS011;48641;51.676;5.808;2023-07-29T04:14:55;3.40;;;1.35;;
62582;SDS011;48641;51.676;5.808;2023-07-29T04:17:21;3.22;;;1.13;;
62582;SDS011;48641;51.676;5.808;2023-07-29T04:19:47;3.33;;;1.25;;
62582;SDS011;48641;51.676;5.808;2023-07-29T04:22:12;3.47;;;1.60;;
62582;SDS011;48641;51.676;5.808;2023-07-29T04:24:39;2.85;;;1.20;;
62582;SDS011;48641;51.676;5.808;2023-07-29T04:27:04;3.03;;;1.42;;
62582;SDS011;48641;51.676;5.808;2023-07-29T04:29:30;2.88;;;1.38;;
62582;SDS011;48641;51.676;5.808;2023-07-29T04:31:56;2.97;;;1.40;;
62582;SDS011;48641;51.676;5.808;2023-07-29T04:34:21;3.20;;;1.33;;
62582;SDS011;48641;51.676;5.808;2023-07-29T04:36:47;2.45;;;1.08;;
62582;SDS011;48641;51.676;5.808;2023-07-29T04:39:13;3.13;;;1.40;;
62582;SDS011;48641;51.676;5.808;2023-07-29T04:41:39;2.97;;;1.30;;
62582;SDS011;48641;51.676;5.808;2023-07-29T04:44:05;2.55;;;1.25;;
62582;SDS011;48641;51.676;5.808;2023-07-29T04:46:31;2.03;;;1.10;;
62582;SDS011;48641;51.676;5.808;2023-07-29T04:48:56;3.78;;;1.30;;
62582;SDS011;48641;51.676;5.808;2023-07-29T04:51:22;3.10;;;1.48;;
62582;SDS011;48641;51.676;5.808;2023-07-29T04:53:48;3.70;;;1.15;;
62582;SDS011;48641;51.676;5.808;2023-07-29T04:56:14;3.38;;;1.45;;
62582;SDS011;48641;51.676;5.808;2023-07-29T04:58:39;2.65;;;1.20;;
62582;SDS011;48641;51.676;5.808;2023-07-29T05:01:05;2.30;;;1.15;;
62582;SDS011;48641;51.676;5.808;2023-07-29T05:03:31;2.70;;;1.23;;
62582;SDS011;48641;51.676;5.808;2023-07-29T05:05:57;2.88;;;1.40;;
62582;SDS011;48641;51.676;5.808;2023-07-29T05:08:24;2.65;;;1.20;;
62582;SDS011;48641;51.676;5.808;2023-07-29T05:10:53;3.13;;;1.50;;
62582;SDS011;48641;51.676;5.808;2023-07-29T05:13:19;4.30;;;1.40;;
62582;SDS011;48641;51.676;5.808;2023-07-29T05:15:45;2.78;;;1.38;;
62582;SDS011;48641;51.676;5.808;2023-07-29T05:18:13;2.53;;;1.40;;
62582;SDS011;48641;51.676;5.808;2023-07-29T05:20:38;3.17;;;1.30;;
62582;SDS011;48641;51.676;5.808;2023-07-29T05:23:04;2.13;;;1.10;;
62582;SDS011;48641;51.676;5.808;2023-07-29T05:25:30;2.45;;;1.27;;
62582;SDS011;48641;51.676;5.808;2023-07-29T05:27:55;3.25;;;1.30;;
62582;SDS011;48641;51.676;5.808;2023-07-29T05:30:22;2.70;;;1.20;;
62582;SDS011;48641;51.676;5.808;2023-07-29T05:32:47;3.35;;;1.27;;
62582;SDS011;48641;51.676;5.808;2023-07-29T05:35:13;2.90;;;1.30;;
62582;SDS011;48641;51.676;5.808;2023-07-29T05:37:39;3.35;;;1.55;;
62582;SDS011;48641;51.676;5.808;2023-07-29T05:40:06;2.97;;;1.35;;
62582;SDS011;48641;51.676;5.808;2023-07-29T05:42:32;2.67;;;1.30;;
62582;SDS011;48641;51.676;5.808;2023-07-29T05:44:58;1.83;;;0.98;;
62582;SDS011;48641;51.676;5.808;2023-07-29T05:47:24;2.42;;;1.35;;
62582;SDS011;48641;51.676;5.808;2023-07-29T05:49:50;3.08;;;1.33;;
62582;SDS011;48641;51.676;5.808;2023-07-29T05:52:15;2.17;;;1.15;;
62582;SDS011;48641;51.676;5.808;2023-07-29T05:54:41;2.30;;;1.10;;
62582;SDS011;48641;51.676;5.808;2023-07-29T05:57:08;2.55;;;1.30;;
62582;SDS011;48641;51.676;5.808;2023-07-29T05:59:34;2.25;;;1.08;;
62582;SDS011;48641;51.676;5.808;2023-07-29T06:02:00;2.60;;;1.27;;
62582;SDS011;48641;51.676;5.808;2023-07-29T06:04:26;2.50;;;1.13;;
62582;SDS011;48641;51.676;5.808;2023-07-29T06:06:52;3.30;;;1.40;;
62582;SDS011;48641;51.676;5.808;2023-07-29T06:09:17;2.95;;;1.15;;
62582;SDS011;48641;51.676;5.808;2023-07-29T06:11:43;3.17;;;1.48;;
62582;SDS011;48641;51.676;5.808;2023-07-29T06:14:08;2.50;;;1.20;;
62582;SDS011;48641;51.676;5.808;2023-07-29T06:16:34;3.20;;;1.23;;
62582;SDS011;48641;51.676;5.808;2023-07-29T06:19:00;3.00;;;1.20;;
62582;SDS011;48641;51.676;5.808;2023-07-29T06:21:25;2.17;;;1.10;;
62582;SDS011;48641;51.676;5.808;2023-07-29T06:23:51;2.28;;;1.10;;
62582;SDS011;48641;51.676;5.808;2023-07-29T06:26:17;3.17;;;1.27;;
62582;SDS011;48641;51.676;5.808;2023-07-29T06:28:42;3.00;;;1.20;;
62582;SDS011;48641;51.676;5.808;2023-07-29T06:31:08;3.00;;;1.35;;
62582;SDS011;48641;51.676;5.808;2023-07-29T06:33:33;3.33;;;1.20;;
62582;SDS011;48641;51.676;5.808;2023-07-29T06:35:59;3.50;;;1.23;;
62582;SDS011;48641;51.676;5.808;2023-07-29T06:38:25;3.72;;;1.50;;
62582;SDS011;48641;51.676;5.808;2023-07-29T06:40:50;3.38;;;1.40;;
62582;SDS011;48641;51.676;5.808;2023-07-29T06:43:17;2.83;;;1.10;;
62582;SDS011;48641;51.676;5.808;2023-07-29T06:45:43;2.58;;;1.23;;
62582;SDS011;48641;51.676;5.808;2023-07-29T06:48:11;3.00;;;1.25;;
62582;SDS011;48641;51.676;5.808;2023-07-29T06:50:37;2.40;;;1.13;;
62582;SDS011;48641;51.676;5.808;2023-07-29T06:53:02;2.90;;;1.20;;
62582;SDS011;48641;51.676;5.808;2023-07-29T06:55:28;4.32;;;1.48;;
62582;SDS011;48641;51.676;5.808;2023-07-29T06:57:54;3.15;;;1.23;;
62582;SDS011;48641;51.676;5.808;2023-07-29T07:00:19;4.25;;;1.50;;
62582;SDS011;48641;51.676;5.808;2023-07-29T07:02:45;3.22;;;1.30;;
62582;SDS011;48641;51.676;5.808;2023-07-29T07:05:11;2.58;;;1.23;;
62582;SDS011;48641;51.676;5.808;2023-07-29T07:07:36;3.28;;;1.25;;
62582;SDS011;48641;51.676;5.808;2023-07-29T07:10:03;3.22;;;1.17;;
62582;SDS011;48641;51.676;5.808;2023-07-29T07:12:29;2.85;;;1.23;;
62582;SDS011;48641;51.676;5.808;2023-07-29T07:14:54;4.28;;;1.25;;
62582;SDS011;48641;51.676;5.808;2023-07-29T07:17:20;3.78;;;1.50;;
62582;SDS011;48641;51.676;5.808;2023-07-29T07:19:45;3.15;;;1.40;;
62582;SDS011;48641;51.676;5.808;2023-07-29T07:22:11;4.15;;;1.40;;
62582;SDS011;48641;51.676;5.808;2023-07-29T07:24:37;4.68;;;1.20;;
62582;SDS011;48641;51.676;5.808;2023-07-29T07:27:02;2.60;;;1.10;;
62582;SDS011;48641;51.676;5.808;2023-07-29T07:29:28;4.13;;;1.20;;
62582;SDS011;48641;51.676;5.808;2023-07-29T07:31:55;3.55;;;1.58;;
62582;SDS011;48641;51.676;5.808;2023-07-29T07:34:21;2.72;;;1.10;;
62582;SDS011;48641;51.676;5.808;2023-07-29T07:36:47;4.78;;;1.55;;
62582;SDS011;48641;51.676;5.808;2023-07-29T07:39:13;4.63;;;1.50;;
62582;SDS011;48641;51.676;5.808;2023-07-29T07:41:39;3.08;;;1.33;;
62582;SDS011;48641;51.676;5.808;2023-07-29T07:44:05;2.92;;;1.30;;
62582;SDS011;48641;51.676;5.808;2023-07-29T07:46:31;3.25;;;1.30;;
62582;SDS011;48641;51.676;5.808;2023-07-29T07:48:56;3.75;;;1.40;;
62582;SDS011;48641;51.676;5.808;2023-07-29T07:51:22;2.90;;;1.50;;
62582;SDS011;48641;51.676;5.808;2023-07-29T07:53:48;3.35;;;1.25;;
62582;SDS011;48641;51.676;5.808;2023-07-29T07:56:14;3.92;;;1.40;;
62582;SDS011;48641;51.676;5.808;2023-07-29T07:58:40;2.70;;;1.20;;
62582;SDS011;48641;51.676;5.808;2023-07-29T08:01:06;4.40;;;1.75;;
62582;SDS011;48641;51.676;5.808;2023-07-29T08:03:33;3.25;;;1.45;;
62582;SDS011;48641;51.676;5.808;2023-07-29T08:05:59;3.03;;;1.48;;
62582;SDS011;48641;51.676;5.808;2023-07-29T08:08:25;3.28;;;1.40;;
62582;SDS011;48641;51.676;5.808;2023-07-29T08:10:55;5.13;;;1.50;;
62582;SDS011;48641;51.676;5.808;2023-07-29T08:13:22;3.22;;;1.35;;
62582;SDS011;48641;51.676;5.808;2023-07-29T08:15:49;3.13;;;1.40;;
62582;SDS011;48641;51.676;5.808;2023-07-29T08:18:15;2.58;;;1.23;;
62582;SDS011;48641;51.676;5.808;2023-07-29T08:20:52;2.92;;;1.30;;
62582;SDS011;48641;51.676;5.808;2023-07-29T08:23:19;7.22;;;4.03;;
62582;SDS011;48641;51.676;5.808;2023-07-29T08:25:50;13.35;;;7.70;;
62582;SDS011;48641;51.676;5.808;2023-07-29T08:28:19;6.18;;;3.13;;
62582;SDS011;48641;51.676;5.808;2023-07-29T08:30:45;6.40;;;3.55;;
62582;SDS011;48641;51.676;5.808;2023-07-29T08:33:11;5.72;;;2.40;;
62582;SDS011;48641;51.676;5.808;2023-07-29T08:35:36;6.35;;;3.20;;
62582;SDS011;48641;51.676;5.808;2023-07-29T08:38:02;6.40;;;2.50;;
62582;SDS011;48641;51.676;5.808;2023-07-29T08:40:29;5.28;;;2.50;;
62582;SDS011;48641;51.676;5.808;2023-07-29T08:42:56;5.38;;;2.55;;
62582;SDS011;48641;51.676;5.808;2023-07-29T08:45:26;4.60;;;2.13;;
62582;SDS011;48641;51.676;5.808;2023-07-29T08:47:54;4.72;;;2.10;;
62582;SDS011;48641;51.676;5.808;2023-07-29T08:50:22;6.85;;;2.08;;
62582;SDS011;48641;51.676;5.808;2023-07-29T08:52:49;5.10;;;1.92;;
62582;SDS011;48641;51.676;5.808;2023-07-29T08:55:17;4.88;;;2.00;;
62582;SDS011;48641;51.676;5.808;2023-07-29T08:57:43;4.95;;;1.90;;
62582;SDS011;48641;51.676;5.808;2023-07-29T09:00:09;5.20;;;1.90;;
62582;SDS011;48641;51.676;5.808;2023-07-29T09:02:36;6.35;;;2.58;;
62582;SDS011;48641;51.676;5.808;2023-07-29T09:05:01;6.45;;;2.53;;
62582;SDS011;48641;51.676;5.808;2023-07-29T09:07:27;5.22;;;2.30;;
62582;SDS011;48641;51.676;5.808;2023-07-29T09:09:54;7.03;;;2.03;;
62582;SDS011;48641;51.676;5.808;2023-07-29T09:12:20;8.20;;;2.40;;
62582;SDS011;48641;51.676;5.808;2023-07-29T09:14:46;9.48;;;2.20;;
62582;SDS011;48641;51.676;5.808;2023-07-29T09:17:11;6.32;;;2.40;;
62582;SDS011;48641;51.676;5.808;2023-07-29T09:19:39;7.85;;;2.38;;
62582;SDS011;48641;51.676;5.808;2023-07-29T09:22:04;8.75;;;2.78;;
62582;SDS011;48641;51.676;5.808;2023-07-29T09:24:30;8.20;;;2.30;;
62582;SDS011;48641;51.676;5.808;2023-07-29T09:26:57;8.50;;;1.92;;
62582;SDS011;48641;51.676;5.808;2023-07-29T09:29:23;7.00;;;2.33;;
62582;SDS011;48641;51.676;5.808;2023-07-29T09:31:51;8.25;;;2.60;;
62582;SDS011;48641;51.676;5.808;2023-07-29T09:34:17;7.30;;;2.30;;
62582;SDS011;48641;51.676;5.808;2023-07-29T09:36:43;6.35;;;2.03;;
62582;SDS011;48641;51.676;5.808;2023-07-29T09:39:11;8.65;;;2.03;;
62582;SDS011;48641;51.676;5.808;2023-07-29T09:41:40;6.65;;;1.85;;
62582;SDS011;48641;51.676;5.808;2023-07-29T09:44:11;8.32;;;2.38;;
62582;SDS011;48641;51.676;5.808;2023-07-29T09:46:37;8.48;;;2.03;;
62582;SDS011;48641;51.676;5.808;2023-07-29T09:49:06;6.20;;;2.10;;
62582;SDS011;48641;51.676;5.808;2023-07-29T09:51:39;6.15;;;2.20;;
62582;SDS011;48641;51.676;5.808;2023-07-29T09:54:05;3.63;;;1.65;;
62582;SDS011;48641;51.676;5.808;2023-07-29T09:56:31;6.60;;;1.95;;
62582;SDS011;48641;51.676;5.808;2023-07-29T09:58:56;4.00;;;1.77;;
62582;SDS011;48641;51.676;5.808;2023-07-29T10:01:22;72.70;;;7.63;;
62582;SDS011;48641;51.676;5.808;2023-07-29T10:03:49;37.67;;;4.72;;
62582;SDS011;48641;51.676;5.808;2023-07-29T10:06:15;10.60;;;2.15;;
62582;SDS011;48641;51.676;5.808;2023-07-29T10:08:41;9.77;;;2.25;;
62582;SDS011;48641;51.676;5.808;2023-07-29T10:11:08;7.18;;;2.10;;
62582;SDS011;48641;51.676;5.808;2023-07-29T10:13:35;12.20;;;2.40;;
62582;SDS011;48641;51.676;5.808;2023-07-29T10:16:02;8.38;;;2.42;;
62582;SDS011;48641;51.676;5.808;2023-07-29T10:18:28;15.07;;;2.20;;
62582;SDS011;48641;51.676;5.808;2023-07-29T10:20:56;11.07;;;2.17;;
62582;SDS011;48641;51.676;5.808;2023-07-29T10:23:24;9.20;;;2.13;;
62582;SDS011;48641;51.676;5.808;2023-07-29T10:26:08;6.70;;;1.70;;
62582;SDS011;48641;51.676;5.808;2023-07-29T10:28:36;9.40;;;1.95;;
62582;SDS011;48641;51.676;5.808;2023-07-29T10:31:05;10.55;;;1.95;;
62582;SDS011;48641;51.676;5.808;2023-07-29T10:33:31;10.07;;;2.17;;
62582;SDS011;48641;51.676;5.808;2023-07-29T10:35:59;7.97;;;2.13;;
62582;SDS011;48641;51.676;5.808;2023-07-29T10:38:25;9.60;;;2.35;;
62582;SDS011;48641;51.676;5.808;2023-07-29T10:40:51;7.35;;;1.83;;
62582;SDS011;48641;51.676;5.808;2023-07-29T10:43:38;8.00;;;1.83;;
62582;SDS011;48641;51.676;5.808;2023-07-29T10:46:17;7.68;;;1.95;;
62582;SDS011;48641;51.676;5.808;2023-07-29T10:48:51;7.38;;;2.03;;
62582;SDS011;48641;51.676;5.808;2023-07-29T10:51:28;6.32;;;1.60;;
62582;SDS011;48641;51.676;5.808;2023-07-29T10:53:57;5.97;;;1.73;;
62582;SDS011;48641;51.676;5.808;2023-07-29T10:56:29;8.35;;;1.60;;
62582;SDS011;48641;51.676;5.808;2023-07-29T10:58:59;5.22;;;1.60;;
62582;SDS011;48641;51.676;5.808;2023-07-29T11:01:37;5.10;;;1.75;;
62582;SDS011;48641;51.676;5.808;2023-07-29T11:15:18;3.75;;;1.70;;
62582;SDS011;48641;51.676;5.808;2023-07-29T11:17:57;4.15;;;1.60;;
62582;SDS011;48641;51.676;5.808;2023-07-29T11:20:25;3.75;;;1.70;;
62582;SDS011;48641;51.676;5.808;2023-07-29T11:22:53;4.43;;;1.60;;
62582;SDS011;48641;51.676;5.808;2023-07-29T11:25:20;5.78;;;1.75;;
62582;SDS011;48641;51.676;5.808;2023-07-29T11:27:47;4.43;;;1.63;;
62582;SDS011;48641;51.676;5.808;2023-07-29T11:30:13;4.97;;;1.77;;
62582;SDS011;48641;51.676;5.808;2023-07-29T11:32:41;4.43;;;1.88;;
62582;SDS011;48641;51.676;5.808;2023-07-29T11:35:11;4.47;;;1.60;;
62582;SDS011;48641;51.676;5.808;2023-07-29T11:37:40;4.07;;;1.55;;
62582;SDS011;48641;51.676;5.808;2023-07-29T11:40:07;4.45;;;1.80;;
62582;SDS011;48641;51.676;5.808;2023-07-29T11:42:35;4.65;;;1.85;;
62582;SDS011;48641;51.676;5.808;2023-07-29T11:45:02;3.75;;;1.92;;
62582;SDS011;48641;51.676;5.808;2023-07-29T11:47:31;4.68;;;1.77;;
62582;SDS011;48641;51.676;5.808;2023-07-29T11:50:01;4.78;;;1.75;;
62582;SDS011;48641;51.676;5.808;2023-07-29T11:52:27;5.32;;;1.60;;
62582;SDS011;48641;51.676;5.808;2023-07-29T11:54:53;4.38;;;1.85;;
62582;SDS011;48641;51.676;5.808;2023-07-29T11:57:19;4.68;;;1.90;;
62582;SDS011;48641;51.676;5.808;2023-07-29T11:59:45;3.60;;;1.60;;
62582;SDS011;48641;51.676;5.808;2023-07-29T12:02:15;3.80;;;1.63;;
62582;SDS011;48641;51.676;5.808;2023-07-29T12:04:43;4.75;;;1.50;;
62582;SDS011;48641;51.676;5.808;2023-07-29T12:07:11;4.05;;;1.67;;
62582;SDS011;48641;51.676;5.808;2023-07-29T12:09:39;3.55;;;1.70;;
62582;SDS011;48641;51.676;5.808;2023-07-29T12:12:07;4.05;;;1.58;;
62582;SDS011;48641;51.676;5.808;2023-07-29T12:14:33;4.78;;;2.00;;
62582;SDS011;48641;51.676;5.808;2023-07-29T12:17:00;5.40;;;1.75;;
62582;SDS011;48641;51.676;5.808;2023-07-29T12:22:00;3.50;;;1.52;;
62582;SDS011;48641;51.676;5.808;2023-07-29T12:24:26;3.75;;;1.55;;
62582;SDS011;48641;51.676;5.808;2023-07-29T12:26:54;3.65;;;1.58;;
62582;SDS011;48641;51.676;5.808;2023-07-29T12:29:19;3.50;;;1.67;;
62582;SDS011;48641;51.676;5.808;2023-07-29T12:31:45;4.25;;;1.45;;
62582;SDS011;48641;51.676;5.808;2023-07-29T12:34:20;3.65;;;1.48;;
62582;SDS011;48641;51.676;5.808;2023-07-29T12:36:50;4.00;;;1.50;;
62582;SDS011;48641;51.676;5.808;2023-07-29T12:39:39;3.80;;;1.60;;
62582;SDS011;48641;51.676;5.808;2023-07-29T12:42:07;4.97;;;1.73;;
62582;SDS011;48641;51.676;5.808;2023-07-29T12:44:33;5.55;;;1.70;;
62582;SDS011;48641;51.676;5.808;2023-07-29T12:47:01;2.83;;;1.47;;
62582;SDS011;48641;51.676;5.808;2023-07-29T12:49:28;3.97;;;1.50;;
62582;SDS011;48641;51.676;5.808;2023-07-29T12:51:54;3.47;;;1.40;;
62582;SDS011;48641;51.676;5.808;2023-07-29T12:56:49;6.07;;;1.63;;
62582;SDS011;48641;51.676;5.808;2023-07-29T12:59:15;5.60;;;1.90;;
62582;SDS011;48641;51.676;5.808;2023-07-29T13:01:40;10.77;;;1.95;;
62582;SDS011;48641;51.676;5.808;2023-07-29T13:04:06;10.68;;;2.08;;
62582;SDS011;48641;51.676;5.808;2023-07-29T13:27:29;7.85;;;1.98;;
62582;SDS011;48641;51.676;5.808;2023-07-29T13:29:55;13.40;;;2.35;;
62582;SDS011;48641;51.676;5.808;2023-07-29T13:32:20;14.27;;;2.50;;
62582;SDS011;48641;51.676;5.808;2023-07-29T13:34:46;10.15;;;2.47;;
62582;SDS011;48641;51.676;5.808;2023-07-29T13:37:12;16.90;;;2.63;;
62582;SDS011;48641;51.676;5.808;2023-07-29T13:39:37;8.90;;;2.30;;
62582;SDS011;48641;51.676;5.808;2023-07-29T13:42:03;9.85;;;2.15;;
62582;SDS011;48641;51.676;5.808;2023-07-29T13:44:28;11.52;;;2.22;;
62582;SDS011;48641;51.676;5.808;2023-07-29T13:46:54;14.38;;;2.47;;
62582;SDS011;48641;51.676;5.808;2023-07-29T13:49:20;9.63;;;2.10;;
62582;SDS011;48641;51.676;5.808;2023-07-29T13:51:45;8.18;;;1.88;;
62582;SDS011;48641;51.676;5.808;2023-07-29T13:54:11;7.47;;;1.90;;
62582;SDS011;48641;51.676;5.808;2023-07-29T13:56:36;8.82;;;2.30;;
62582;SDS011;48641;51.676;5.808;2023-07-29T13:59:02;8.60;;;2.30;;
62582;SDS011;48641;51.676;5.808;2023-07-29T14:01:27;7.15;;;2.25;;
62582;SDS011;48641;51.676;5.808;2023-07-29T14:03:53;7.88;;;2.55;;
62582;SDS011;48641;51.676;5.808;2023-07-29T14:06:19;8.10;;;2.13;;
62582;SDS011;48641;51.676;5.808;2023-07-29T14:08:44;11.15;;;2.00;;
62582;SDS011;48641;51.676;5.808;2023-07-29T14:11:10;7.53;;;1.85;;
62582;SDS011;48641;51.676;5.808;2023-07-29T14:13:35;6.57;;;1.70;;
62582;SDS011;48641;51.676;5.808;2023-07-29T14:16:01;7.32;;;2.00;;
62582;SDS011;48641;51.676;5.808;2023-07-29T14:18:27;5.22;;;1.60;;
62582;SDS011;48641;51.676;5.808;2023-07-29T14:20:53;6.00;;;1.70;;
62582;SDS011;48641;51.676;5.808;2023-07-29T14:23:19;6.57;;;1.95;;
62582;SDS011;48641;51.676;5.808;2023-07-29T14:25:44;5.28;;;1.95;;
62582;SDS011;48641;51.676;5.808;2023-07-29T14:28:10;7.38;;;2.05;;
62582;SDS011;48641;51.676;5.808;2023-07-29T14:30:35;6.35;;;1.85;;
62582;SDS011;48641;51.676;5.808;2023-07-29T14:33:02;7.60;;;2.17;;
62582;SDS011;48641;51.676;5.808;2023-07-29T14:35:28;9.57;;;1.85;;
62582;SDS011;48641;51.676;5.808;2023-07-29T14:37:54;7.10;;;2.03;;
62582;SDS011;48641;51.676;5.808;2023-07-29T14:40:19;5.35;;;1.75;;
62582;SDS011;48641;51.676;5.808;2023-07-29T14:42:45;6.72;;;1.77;;
62582;SDS011;48641;51.676;5.808;2023-07-29T14:45:10;4.45;;;1.48;;
62582;SDS011;48641;51.676;5.808;2023-07-29T14:47:36;4.20;;;1.60;;
62582;SDS011;48641;51.676;5.808;2023-07-29T14:50:02;5.32;;;2.00;;
62582;SDS011;48641;51.676;5.808;2023-07-29T14:52:27;6.25;;;1.60;;
62582;SDS011;48641;51.676;5.808;2023-07-29T14:54:53;4.57;;;1.80;;
62582;SDS011;48641;51.676;5.808;2023-07-29T14:57:19;5.07;;;1.83;;
62582;SDS011;48641;51.676;5.808;2023-07-29T14:59:44;5.05;;;1.98;;
62582;SDS011;48641;51.676;5.808;2023-07-29T15:02:10;5.20;;;1.55;;
62582;SDS011;48641;51.676;5.808;2023-07-29T15:04:35;5.15;;;1.70;;
62582;SDS011;48641;51.676;5.808;2023-07-29T15:07:01;4.63;;;1.52;;
62582;SDS011;48641;51.676;5.808;2023-07-29T15:09:27;5.78;;;1.80;;
62582;SDS011;48641;51.676;5.808;2023-07-29T15:11:53;4.70;;;1.55;;
62582;SDS011;48641;51.676;5.808;2023-07-29T15:14:18;6.18;;;1.73;;
62582;SDS011;48641;51.676;5.808;2023-07-29T15:16:44;6.25;;;2.10;;
62582;SDS011;48641;51.676;5.808;2023-07-29T15:19:10;5.10;;;1.40;;
62582;SDS011;48641;51.676;5.808;2023-07-29T15:21:35;6.38;;;1.90;;
62582;SDS011;48641;51.676;5.808;2023-07-29T15:24:01;5.43;;;1.60;;
62582;SDS011;48641;51.676;5.808;2023-07-29T15:26:26;6.40;;;1.70;;
62582;SDS011;48641;51.676;5.808;2023-07-29T15:28:53;5.78;;;1.65;;